sensor_id;sensor_type;location;lat;lon;timestamp;pressure;altitude;pressure_sealevel;temperature;humidity
67038;BME280;53940;53.204;6.590;2022-12-18T00:01:59;102687.91;;;22.29;45.46
67038;BME280;53940;53.204;6.590;2022-12-18T00:04:59;102678.97;;;22.29;45.17
67038;BME280;53940;53.204;6.590;2022-12-18T00:08:00;102678.97;;;22.29;45.33
67038;BME280;53940;53.204;6.590;2022-12-18T00:11:08;102692.41;;;22.29;45.42
67038;BME280;53940;53.204;6.590;2022-12-18T00:14:11;102689.81;;;22.27;45.33
67038;BME280;53940;53.204;6.590;2022-12-18T00:17:11;102692.50;;;22.27;45.15
67038;BME280;53940;53.204;6.590;2022-12-18T00:20:12;102689.91;;;22.26;45.18
67038;BME280;53940;53.204;6.590;2022-12-18T00:23:12;102698.84;;;22.26;45.35
67038;BME280;53940;53.204;6.590;2022-12-18T00:26:18;102696.25;;;22.25;45.27
67038;BME280;53940;53.204;6.590;2022-12-18T00:29:18;102684.66;;;22.24;45.29
67038;BME280;53940;53.204;6.590;2022-12-18T00:32:19;102675.75;;;22.24;45.34
67038;BME280;53940;53.204;6.590;2022-12-18T00:35:19;102680.38;;;22.21;45.29
67038;BME280;53940;53.204;6.590;2022-12-18T00:38:20;102675.97;;;22.20;45.49
67038;BME280;53940;53.204;6.590;2022-12-18T00:41:21;102697.44;;;22.20;45.58
67038;BME280;53940;53.204;6.590;2022-12-18T00:44:40;102694.97;;;22.17;45.32
67038;BME280;53940;53.204;6.590;2022-12-18T00:47:40;102703.09;;;22.16;45.52
67038;BME280;53940;53.204;6.590;2022-12-18T00:50:40;102705.94;;;22.14;45.34
67038;BME280;53940;53.204;6.590;2022-12-18T00:53:41;102705.16;;;22.12;45.33
67038;BME280;53940;53.204;6.590;2022-12-18T00:56:41;102706.34;;;22.08;45.15
67038;BME280;53940;53.204;6.590;2022-12-18T00:59:41;102707.28;;;22.07;44.80
67038;BME280;53940;53.204;6.590;2022-12-18T01:02:42;102698.47;;;22.05;44.64
67038;BME280;53940;53.204;6.590;2022-12-18T01:05:42;102693.22;;;22.03;44.79
67038;BME280;53940;53.204;6.590;2022-12-18T01:08:43;102696.03;;;22.02;44.81
67038;BME280;53940;53.204;6.590;2022-12-18T01:11:43;102703.28;;;22.00;44.56
67038;BME280;53940;53.204;6.590;2022-12-18T01:14:44;102698.91;;;21.99;44.58
67038;BME280;53940;53.204;6.590;2022-12-18T01:17:44;102697.19;;;21.98;44.38
67038;BME280;53940;53.204;6.590;2022-12-18T01:20:44;102708.00;;;21.96;44.49
67038;BME280;53940;53.204;6.590;2022-12-18T01:23:45;102708.09;;;21.94;44.28
67038;BME280;53940;53.204;6.590;2022-12-18T01:26:46;102714.44;;;21.93;43.93
67038;BME280;53940;53.204;6.590;2022-12-18T01:29:46;102715.41;;;21.92;43.77
67038;BME280;53940;53.204;6.590;2022-12-18T01:32:47;102719.16;;;21.90;43.85
67038;BME280;53940;53.204;6.590;2022-12-18T01:35:47;102722.72;;;21.90;43.88
67038;BME280;53940;53.204;6.590;2022-12-18T01:38:48;102723.69;;;21.89;43.76
67038;BME280;53940;53.204;6.590;2022-12-18T01:41:49;102730.97;;;21.87;43.47
67038;BME280;53940;53.204;6.590;2022-12-18T01:48:06;102728.38;;;21.86;43.18
67038;BME280;53940;53.204;6.590;2022-12-18T01:51:10;102718.59;;;21.85;43.29
67038;BME280;53940;53.204;6.590;2022-12-18T01:54:11;102712.38;;;21.84;43.33
67038;BME280;53940;53.204;6.590;2022-12-18T01:57:11;102722.16;;;21.85;43.04
67038;BME280;53940;53.204;6.590;2022-12-18T02:00:15;102716.88;;;21.84;43.07
67038;BME280;53940;53.204;6.590;2022-12-18T02:03:15;102720.44;;;21.84;42.83
67038;BME280;53940;53.204;6.590;2022-12-18T02:06:20;102721.41;;;21.83;42.68
67038;BME280;53940;53.204;6.590;2022-12-18T02:09:29;102736.53;;;21.84;42.55
67038;BME280;53940;53.204;6.590;2022-12-18T02:12:39;102736.72;;;21.81;42.29
67038;BME280;53940;53.204;6.590;2022-12-18T02:15:51;102735.75;;;21.82;42.56
67038;BME280;53940;53.204;6.590;2022-12-18T02:18:58;102737.50;;;21.83;42.54
67038;BME280;53940;53.204;6.590;2022-12-18T02:29:36;102729.47;;;21.83;42.08
67038;BME280;53940;53.204;6.590;2022-12-18T02:32:43;102726.66;;;21.85;42.44
67038;BME280;53940;53.204;6.590;2022-12-18T02:35:45;102728.38;;;21.86;42.72
67038;BME280;53940;53.204;6.590;2022-12-18T02:38:46;102721.19;;;21.86;42.35
67038;BME280;53940;53.204;6.590;2022-12-18T02:41:48;102723.78;;;21.88;42.58
67038;BME280;53940;53.204;6.590;2022-12-18T02:44:51;102719.16;;;21.90;42.10
67038;BME280;53940;53.204;6.590;2022-12-18T02:47:51;102709.28;;;21.90;42.28
67038;BME280;53940;53.204;6.590;2022-12-18T02:51:02;102708.31;;;21.91;41.50
67038;BME280;53940;53.204;6.590;2022-12-18T02:54:13;102713.69;;;21.91;41.49
67038;BME280;53940;53.204;6.590;2022-12-18T02:57:58;102711.00;;;21.91;41.88
67038;BME280;53940;53.204;6.590;2022-12-18T03:01:16;102701.03;;;21.93;41.64
67038;BME280;53940;53.204;6.590;2022-12-18T03:07:30;102704.47;;;21.96;41.38
67038;BME280;53940;53.204;6.590;2022-12-18T03:10:38;102717.91;;;21.96;41.47
67038;BME280;53940;53.204;6.590;2022-12-18T03:13:53;102725.00;;;21.97;41.39
67038;BME280;53940;53.204;6.590;2022-12-18T03:17:00;102726.63;;;21.99;41.39
67038;BME280;53940;53.204;6.590;2022-12-18T03:20:09;102724.69;;;22.01;41.23
67038;BME280;53940;53.204;6.590;2022-12-18T03:23:14;102718.34;;;22.02;41.36
67038;BME280;53940;53.204;6.590;2022-12-18T03:26:19;102715.66;;;22.02;41.33
67038;BME280;53940;53.204;6.590;2022-12-18T03:29:28;102717.28;;;22.05;41.04
67038;BME280;53940;53.204;6.590;2022-12-18T03:32:35;102716.31;;;22.06;41.34
67038;BME280;53940;53.204;6.590;2022-12-18T03:35:41;102711.72;;;22.08;41.16
67038;BME280;53940;53.204;6.590;2022-12-18T03:38:42;102705.38;;;22.09;40.72
67038;BME280;53940;53.204;6.590;2022-12-18T03:41:45;102708.91;;;22.10;40.94
67038;BME280;53940;53.204;6.590;2022-12-18T03:48:48;102714.91;;;22.13;40.47
67038;BME280;53940;53.204;6.590;2022-12-18T03:51:56;102718.38;;;22.15;40.72
67038;BME280;53940;53.204;6.590;2022-12-18T03:55:00;102708.38;;;22.17;40.58
67038;BME280;53940;53.204;6.590;2022-12-18T03:58:02;102707.41;;;22.18;40.45
67038;BME280;53940;53.204;6.590;2022-12-18T04:01:05;102700.13;;;22.20;40.86
67038;BME280;53940;53.204;6.590;2022-12-18T04:04:09;102700.78;;;22.24;41.01
67038;BME280;53940;53.204;6.590;2022-12-18T04:07:11;102688.97;;;22.27;40.76
67038;BME280;53940;53.204;6.590;2022-12-18T04:10:14;102697.78;;;22.29;41.22
67038;BME280;53940;53.204;6.590;2022-12-18T04:13:28;102700.22;;;22.32;41.22
67038;BME280;53940;53.204;6.590;2022-12-18T04:16:28;102693.78;;;22.34;41.11
67038;BME280;53940;53.204;6.590;2022-12-18T04:19:29;102704.34;;;22.38;41.42
67038;BME280;53940;53.204;6.590;2022-12-18T04:22:29;102695.22;;;22.40;41.43
67038;BME280;53940;53.204;6.590;2022-12-18T04:25:30;102697.78;;;22.42;41.77
67038;BME280;53940;53.204;6.590;2022-12-18T04:28:30;102709.19;;;22.45;41.75
67038;BME280;53940;53.204;6.590;2022-12-18T04:31:30;102708.13;;;22.48;41.68
67038;BME280;53940;53.204;6.590;2022-12-18T04:34:31;102699.94;;;22.49;41.78
67038;BME280;53940;53.204;6.590;2022-12-18T04:37:31;102708.78;;;22.52;41.69
67038;BME280;53940;53.204;6.590;2022-12-18T04:40:32;102712.22;;;22.54;41.81
67038;BME280;53940;53.204;6.590;2022-12-18T04:43:32;102717.38;;;22.57;41.81
67038;BME280;53940;53.204;6.590;2022-12-18T04:46:33;102708.38;;;22.58;41.87
67038;BME280;53940;53.204;6.590;2022-12-18T04:49:33;102705.44;;;22.61;41.92
67038;BME280;53940;53.204;6.590;2022-12-18T04:52:33;102693.72;;;22.62;41.92
67038;BME280;53940;53.204;6.590;2022-12-18T04:55:34;102691.81;;;22.64;42.10
67038;BME280;53940;53.204;6.590;2022-12-18T04:58:35;102693.53;;;22.65;41.99
67038;BME280;53940;53.204;6.590;2022-12-18T05:01:35;102704.19;;;22.67;41.96
67038;BME280;53940;53.204;6.590;2022-12-18T05:04:36;102713.84;;;22.69;42.08
67038;BME280;53940;53.204;6.590;2022-12-18T05:07:36;102715.56;;;22.70;42.07
67038;BME280;53940;53.204;6.590;2022-12-18T05:10:36;102708.34;;;22.71;42.04
67038;BME280;53940;53.204;6.590;2022-12-18T05:13:37;102715.34;;;22.73;41.95
67038;BME280;53940;53.204;6.590;2022-12-18T05:16:38;102721.59;;;22.74;41.96
67038;BME280;53940;53.204;6.590;2022-12-18T05:19:38;102718.91;;;22.74;42.15
67038;BME280;53940;53.204;6.590;2022-12-18T05:22:38;102710.72;;;22.75;42.11
67038;BME280;53940;53.204;6.590;2022-12-18T05:25:39;102721.47;;;22.75;42.24
67038;BME280;53940;53.204;6.590;2022-12-18T05:28:39;102724.16;;;22.75;42.15
67038;BME280;53940;53.204;6.590;2022-12-18T05:31:39;102721.34;;;22.77;42.29
67038;BME280;53940;53.204;6.590;2022-12-18T05:34:40;102713.41;;;22.75;42.31
67038;BME280;53940;53.204;6.590;2022-12-18T05:37:40;102712.44;;;22.77;42.20
67038;BME280;53940;53.204;6.590;2022-12-18T05:40:42;102711.56;;;22.76;42.26
67038;BME280;53940;53.204;6.590;2022-12-18T05:43:43;102716.09;;;22.75;42.34
67038;BME280;53940;53.204;6.590;2022-12-18T05:46:43;102713.28;;;22.77;42.20
67038;BME280;53940;53.204;6.590;2022-12-18T05:49:44;102716.94;;;22.76;42.47
67038;BME280;53940;53.204;6.590;2022-12-18T05:52:44;102713.41;;;22.75;42.22
67038;BME280;53940;53.204;6.590;2022-12-18T05:55:45;102721.47;;;22.75;42.45
67038;BME280;53940;53.204;6.590;2022-12-18T05:58:46;102736.75;;;22.75;42.35
67038;BME280;53940;53.204;6.590;2022-12-18T06:01:47;102730.50;;;22.74;42.36
67038;BME280;53940;53.204;6.590;2022-12-18T06:04:48;102739.44;;;22.75;42.39
67038;BME280;53940;53.204;6.590;2022-12-18T06:07:48;102746.63;;;22.74;42.36
67038;BME280;53940;53.204;6.590;2022-12-18T06:10:51;102752.00;;;22.74;42.47
67038;BME280;53940;53.204;6.590;2022-12-18T06:13:54;102758.34;;;22.73;42.55
67038;BME280;53940;53.204;6.590;2022-12-18T06:16:54;102761.91;;;22.74;42.50
67038;BME280;53940;53.204;6.590;2022-12-18T06:19:55;102782.63;;;22.72;42.59
67038;BME280;53940;53.204;6.590;2022-12-18T06:22:55;102779.09;;;22.71;42.60
67038;BME280;53940;53.204;6.590;2022-12-18T06:25:56;102779.09;;;22.71;42.66
67038;BME280;53940;53.204;6.590;2022-12-18T06:28:56;102761.25;;;22.70;42.43
67038;BME280;53940;53.204;6.590;2022-12-18T06:31:56;102763.16;;;22.68;42.53
67038;BME280;53940;53.204;6.590;2022-12-18T06:34:57;102757.78;;;22.68;42.50
67038;BME280;53940;53.204;6.590;2022-12-18T06:37:57;102754.38;;;22.66;42.76
67038;BME280;53940;53.204;6.590;2022-12-18T06:40:58;102749.00;;;22.66;42.59
67038;BME280;53940;53.204;6.590;2022-12-18T06:43:58;102746.41;;;22.65;42.56
67038;BME280;53940;53.204;6.590;2022-12-18T06:46:58;102739.31;;;22.64;42.75
67038;BME280;53940;53.204;6.590;2022-12-18T06:49:59;102731.34;;;22.62;42.44
67038;BME280;53940;53.204;6.590;2022-12-18T06:52:59;102725.97;;;22.62;42.50
67038;BME280;53940;53.204;6.590;2022-12-18T06:56:04;102729.63;;;22.61;42.64
67038;BME280;53940;53.204;6.590;2022-12-18T06:59:04;102725.22;;;22.60;42.51
67038;BME280;53940;53.204;6.590;2022-12-18T07:02:05;102727.91;;;22.60;42.51
67038;BME280;53940;53.204;6.590;2022-12-18T07:05:06;102723.53;;;22.59;42.38
67038;BME280;53940;53.204;6.590;2022-12-18T07:08:06;102719.84;;;22.60;42.52
67038;BME280;53940;53.204;6.590;2022-12-18T07:11:07;102715.47;;;22.59;42.25
67038;BME280;53940;53.204;6.590;2022-12-18T07:14:07;102711.91;;;22.58;42.60
67038;BME280;53940;53.204;6.590;2022-12-18T07:17:07;102706.41;;;22.60;42.43
67038;BME280;53940;53.204;6.590;2022-12-18T07:20:08;102711.78;;;22.60;42.52
67038;BME280;53940;53.204;6.590;2022-12-18T07:23:09;102706.41;;;22.60;42.57
67038;BME280;53940;53.204;6.590;2022-12-18T07:27:27;102693.97;;;22.59;42.54
67038;BME280;53940;53.204;6.590;2022-12-18T07:30:27;102693.97;;;22.59;42.71
67038;BME280;53940;53.204;6.590;2022-12-18T07:33:28;102686.97;;;22.56;42.44
67038;BME280;53940;53.204;6.590;2022-12-18T07:36:28;102693.19;;;22.57;42.64
67038;BME280;53940;53.204;6.590;2022-12-18T07:39:29;102696.84;;;22.56;42.34
67038;BME280;53940;53.204;6.590;2022-12-18T07:42:29;102689.00;;;22.53;42.45
67038;BME280;53940;53.204;6.590;2022-12-18T07:45:32;102699.75;;;22.53;42.37
67038;BME280;53940;53.204;6.590;2022-12-18T07:48:33;102698.03;;;22.52;42.28
67038;BME280;53940;53.204;6.590;2022-12-18T07:51:33;102694.56;;;22.49;42.12
67038;BME280;53940;53.204;6.590;2022-12-18T07:54:33;102703.59;;;22.48;42.01
67038;BME280;53940;53.204;6.590;2022-12-18T07:57:34;102702.84;;;22.46;42.02
67038;BME280;53940;53.204;6.590;2022-12-18T08:00:35;102716.47;;;22.43;42.08
67038;BME280;53940;53.204;6.590;2022-12-18T08:03:36;102714.75;;;22.42;42.00
67038;BME280;53940;53.204;6.590;2022-12-18T08:06:36;102708.53;;;22.42;42.07
67038;BME280;53940;53.204;6.590;2022-12-18T08:09:37;102707.66;;;22.41;41.86
67038;BME280;53940;53.204;6.590;2022-12-18T08:12:37;102704.97;;;22.41;41.85
67038;BME280;53940;53.204;6.590;2022-12-18T08:15:37;102700.59;;;22.40;42.05
67038;BME280;53940;53.204;6.590;2022-12-18T08:18:38;102689.84;;;22.40;41.75
67038;BME280;53940;53.204;6.590;2022-12-18T08:21:38;102689.94;;;22.39;41.90
67038;BME280;53940;53.204;6.590;2022-12-18T08:24:38;102684.88;;;22.34;41.75
67038;BME280;53940;53.204;6.590;2022-12-18T08:27:39;102692.16;;;22.32;41.91
67038;BME280;53940;53.204;6.590;2022-12-18T08:30:39;102695.09;;;22.29;42.14
67038;BME280;53940;53.204;6.590;2022-12-18T08:33:40;102694.34;;;22.27;41.88
67038;BME280;53940;53.204;6.590;2022-12-18T08:36:40;102706.16;;;22.24;41.99
67038;BME280;53940;53.204;6.590;2022-12-18T08:39:41;102707.22;;;22.21;42.02
67038;BME280;53940;53.204;6.590;2022-12-18T08:42:41;102702.03;;;22.18;42.09
67038;BME280;53940;53.204;6.590;2022-12-18T08:46:00;102709.34;;;22.16;42.44
67038;BME280;53940;53.204;6.590;2022-12-18T08:49:01;102717.50;;;22.15;42.27
67038;BME280;53940;53.204;6.590;2022-12-18T08:52:01;102715.78;;;22.14;42.43
67038;BME280;53940;53.204;6.590;2022-12-18T08:55:03;102723.94;;;22.12;42.47
67038;BME280;53940;53.204;6.590;2022-12-18T08:58:03;102729.31;;;22.12;42.49
67038;BME280;53940;53.204;6.590;2022-12-18T09:01:09;102727.59;;;22.11;42.55
67038;BME280;53940;53.204;6.590;2022-12-18T09:04:09;102728.75;;;22.07;42.46
67038;BME280;53940;53.204;6.590;2022-12-18T09:07:10;102733.28;;;22.06;42.81
67038;BME280;53940;53.204;6.590;2022-12-18T09:10:10;102737.78;;;22.06;42.74
67038;BME280;53940;53.204;6.590;2022-12-18T09:13:11;102733.38;;;22.05;42.64
67038;BME280;53940;53.204;6.590;2022-12-18T09:16:12;102734.34;;;22.04;42.66
67038;BME280;53940;53.204;6.590;2022-12-18T09:19:12;102732.63;;;22.03;42.89
67038;BME280;53940;53.204;6.590;2022-12-18T09:22:12;102728.22;;;22.02;42.96
67038;BME280;53940;53.204;6.590;2022-12-18T09:25:13;102720.28;;;22.00;42.92
67038;BME280;53940;53.204;6.590;2022-12-18T09:28:16;102723.06;;;21.99;43.05
67038;BME280;53940;53.204;6.590;2022-12-18T09:31:18;102732.94;;;21.98;42.87
67038;BME280;53940;53.204;6.590;2022-12-18T09:34:19;102731.19;;;21.97;42.97
67038;BME280;53940;53.204;6.590;2022-12-18T09:37:21;102713.38;;;21.96;43.21
67038;BME280;53940;53.204;6.590;2022-12-18T09:40:26;102700.06;;;21.94;43.17
67038;BME280;53940;53.204;6.590;2022-12-18T09:43:43;102692.97;;;21.93;43.29
67038;BME280;53940;53.204;6.590;2022-12-18T09:46:53;102696.63;;;21.92;43.30
67038;BME280;53940;53.204;6.590;2022-12-18T09:49:57;102701.25;;;21.90;43.17
67038;BME280;53940;53.204;6.590;2022-12-18T09:53:04;102698.56;;;21.90;43.18
67038;BME280;53940;53.204;6.590;2022-12-18T09:56:06;102708.41;;;21.90;43.04
67038;BME280;53940;53.204;6.590;2022-12-18T09:59:26;102690.69;;;21.87;43.36
67038;BME280;53940;53.204;6.590;2022-12-18T10:02:30;102688.00;;;21.87;43.13
67038;BME280;53940;53.204;6.590;2022-12-18T10:15:17;102688.22;;;21.84;43.13
67038;BME280;53940;53.204;6.590;2022-12-18T10:21:47;102682.22;;;21.80;43.51
67038;BME280;53940;53.204;6.590;2022-12-18T10:25:10;102673.28;;;21.80;43.44
67038;BME280;53940;53.204;6.590;2022-12-18T10:28:15;102672.53;;;21.78;43.41
67038;BME280;53940;53.204;6.590;2022-12-18T10:31:19;102671.66;;;21.77;43.14
67038;BME280;53940;53.204;6.590;2022-12-18T10:34:20;102675.31;;;21.76;43.45
67038;BME280;53940;53.204;6.590;2022-12-18T10:37:27;102662.88;;;21.75;43.45
67038;BME280;53940;53.204;6.590;2022-12-18T10:40:28;102653.09;;;21.74;43.25
67038;BME280;53940;53.204;6.590;2022-12-18T10:43:30;102645.91;;;21.75;43.33
67038;BME280;53940;53.204;6.590;2022-12-18T10:46:31;102642.47;;;21.73;43.20
67038;BME280;53940;53.204;6.590;2022-12-18T10:49:33;102637.94;;;21.73;43.29
67038;BME280;53940;53.204;6.590;2022-12-18T10:52:35;102631.72;;;21.73;43.49
67038;BME280;53940;53.204;6.590;2022-12-18T10:55:37;102617.56;;;21.71;43.38
67038;BME280;53940;53.204;6.590;2022-12-18T10:58:39;102622.94;;;21.71;43.56
67038;BME280;53940;53.204;6.590;2022-12-18T11:01:57;102618.59;;;21.68;43.38
67038;BME280;53940;53.204;6.590;2022-12-18T11:04:57;102615.13;;;21.66;43.74
67038;BME280;53940;53.204;6.590;2022-12-18T11:07:59;102621.38;;;21.66;43.15
67038;BME280;53940;53.204;6.590;2022-12-18T11:11:01;102609.91;;;21.64;43.03
67038;BME280;53940;53.204;6.590;2022-12-18T11:14:06;102606.44;;;21.62;43.13
67038;BME280;53940;53.204;6.590;2022-12-18T11:17:20;102600.31;;;21.60;43.12
67038;BME280;53940;53.204;6.590;2022-12-18T11:20:33;102593.25;;;21.59;42.98
67038;BME280;53940;53.204;6.590;2022-12-18T11:23:36;102595.06;;;21.59;43.24
67038;BME280;53940;53.204;6.590;2022-12-18T11:26:37;102591.53;;;21.58;43.15
67038;BME280;53940;53.204;6.590;2022-12-18T11:29:39;102596.13;;;21.56;43.33
67038;BME280;53940;53.204;6.590;2022-12-18T11:32:43;102597.97;;;21.56;43.38
67038;BME280;53940;53.204;6.590;2022-12-18T11:35:55;102590.09;;;21.52;43.37
67038;BME280;53940;53.204;6.590;2022-12-18T11:39:01;102586.59;;;21.52;43.16
67038;BME280;53940;53.204;6.590;2022-12-18T11:42:12;102590.19;;;21.51;43.42
67038;BME280;53940;53.204;6.590;2022-12-18T11:45:29;102592.13;;;21.49;43.15
67038;BME280;53940;53.204;6.590;2022-12-18T11:48:37;102586.78;;;21.49;43.20
67038;BME280;53940;53.204;6.590;2022-12-18T11:51:47;102574.31;;;21.48;43.30
67038;BME280;53940;53.204;6.590;2022-12-18T11:54:52;102547.50;;;21.48;43.25
67038;BME280;53940;53.204;6.590;2022-12-18T11:58:15;102552.13;;;21.46;43.36
67038;BME280;53940;53.204;6.590;2022-12-18T12:04:59;102541.50;;;21.44;43.53
67038;BME280;53940;53.204;6.590;2022-12-18T12:11:36;102527.31;;;21.42;43.36
67038;BME280;53940;53.204;6.590;2022-12-18T12:18:07;102503.28;;;21.40;43.91
67038;BME280;53940;53.204;6.590;2022-12-18T12:28:03;102500.72;;;21.39;44.32
67038;BME280;53940;53.204;6.590;2022-12-18T12:37:43;102464.22;;;21.36;44.35
67038;BME280;53940;53.204;6.590;2022-12-18T12:40:54;102464.22;;;21.36;44.19
67038;BME280;53940;53.204;6.590;2022-12-18T12:43:58;102462.50;;;21.35;44.15
67038;BME280;53940;53.204;6.590;2022-12-18T12:47:12;102451.88;;;21.34;44.16
67038;BME280;53940;53.204;6.590;2022-12-18T12:50:18;102434.97;;;21.33;44.23
67038;BME280;53940;53.204;6.590;2022-12-18T12:53:26;102430.53;;;21.32;44.64
67038;BME280;53940;53.204;6.590;2022-12-18T12:56:38;102424.31;;;21.32;44.59
67038;BME280;53940;53.204;6.590;2022-12-18T13:00:07;102425.41;;;21.29;44.79
67038;BME280;53940;53.204;6.590;2022-12-18T13:03:27;102424.44;;;21.30;44.50
67038;BME280;53940;53.204;6.590;2022-12-18T13:06:43;102421.75;;;21.30;44.65
67038;BME280;53940;53.204;6.590;2022-12-18T13:13:19;102411.13;;;21.28;44.43
67038;BME280;53940;53.204;6.590;2022-12-18T13:16:22;102407.59;;;21.28;44.58
67038;BME280;53940;53.204;6.590;2022-12-18T13:19:25;102408.44;;;21.28;44.68
67038;BME280;53940;53.204;6.590;2022-12-18T13:22:38;102405.75;;;21.28;44.61
67038;BME280;53940;53.204;6.590;2022-12-18T13:25:39;102409.31;;;21.29;44.38
67038;BME280;53940;53.204;6.590;2022-12-18T13:38:34;102383.22;;;21.31;44.43
67038;BME280;53940;53.204;6.590;2022-12-18T13:41:35;102384.09;;;21.32;44.15
67038;BME280;53940;53.204;6.590;2022-12-18T13:44:40;102387.63;;;21.32;44.39
67038;BME280;53940;53.204;6.590;2022-12-18T13:47:43;102390.22;;;21.34;44.35
67038;BME280;53940;53.204;6.590;2022-12-18T13:50:49;102379.47;;;21.34;44.06
67038;BME280;53940;53.204;6.590;2022-12-18T13:53:55;102379.38;;;21.35;43.88
67038;BME280;53940;53.204;6.590;2022-12-18T13:56:57;102378.41;;;21.36;44.18
67038;BME280;53940;53.204;6.590;2022-12-18T13:59:58;102373.06;;;21.36;43.98
67038;BME280;53940;53.204;6.590;2022-12-18T14:02:59;102372.06;;;21.37;43.89
67038;BME280;53940;53.204;6.590;2022-12-18T14:06:03;102364.91;;;21.38;43.93
67038;BME280;53940;53.204;6.590;2022-12-18T14:09:06;102362.13;;;21.39;43.70
67038;BME280;53940;53.204;6.590;2022-12-18T14:12:16;102353.09;;;21.40;43.80
67038;BME280;53940;53.204;6.590;2022-12-18T14:15:39;102356.75;;;21.39;43.73
67038;BME280;53940;53.204;6.590;2022-12-18T14:18:52;102352.22;;;21.40;43.84
67038;BME280;53940;53.204;6.590;2022-12-18T14:21:55;102358.47;;;21.40;43.74
67038;BME280;53940;53.204;6.590;2022-12-18T14:28:17;102354.81;;;21.41;43.65
67038;BME280;53940;53.204;6.590;2022-12-18T14:31:19;102353.09;;;21.40;43.70
67038;BME280;53940;53.204;6.590;2022-12-18T14:34:26;102351.41;;;21.39;43.54
67038;BME280;53940;53.204;6.590;2022-12-18T14:37:27;102338.94;;;21.38;43.62
67038;BME280;53940;53.204;6.590;2022-12-18T14:40:27;102335.31;;;21.39;43.47
67038;BME280;53940;53.204;6.590;2022-12-18T14:43:30;102329.06;;;21.39;43.41
67038;BME280;53940;53.204;6.590;2022-12-18T14:46:36;102334.53;;;21.37;43.53
67038;BME280;53940;53.204;6.590;2022-12-18T14:49:41;102327.47;;;21.36;43.44
67038;BME280;53940;53.204;6.590;2022-12-18T14:52:42;102309.56;;;21.37;43.49
67038;BME280;53940;53.204;6.590;2022-12-18T14:55:46;102299.91;;;21.34;43.65
67038;BME280;53940;53.204;6.590;2022-12-18T14:58:50;102312.34;;;21.35;43.62
67038;BME280;53940;53.204;6.590;2022-12-18T15:05:02;102306.97;;;21.35;43.61
67038;BME280;53940;53.204;6.590;2022-12-18T15:08:02;102308.91;;;21.33;44.09
67038;BME280;53940;53.204;6.590;2022-12-18T15:11:03;102291.97;;;21.33;43.93
67038;BME280;53940;53.204;6.590;2022-12-18T15:14:42;102293.03;;;21.30;43.54
67038;BME280;53940;53.204;6.590;2022-12-18T15:17:42;102296.69;;;21.29;43.75
67038;BME280;53940;53.204;6.590;2022-12-18T15:20:59;102294.97;;;21.28;43.76
67038;BME280;53940;53.204;6.590;2022-12-18T15:24:00;102286.06;;;21.27;43.92
67038;BME280;53940;53.204;6.590;2022-12-18T15:27:00;102281.66;;;21.26;43.83
67038;BME280;53940;53.204;6.590;2022-12-18T15:33:23;102262.91;;;21.26;43.29
67038;BME280;53940;53.204;6.590;2022-12-18T15:36:25;102262.81;;;21.28;43.59
67038;BME280;53940;53.204;6.590;2022-12-18T15:39:25;102252.06;;;21.28;43.67
67038;BME280;53940;53.204;6.590;2022-12-18T15:42:26;102248.44;;;21.29;43.65
67038;BME280;53940;53.204;6.590;2022-12-18T15:45:45;102251.94;;;21.30;43.62
67038;BME280;53940;53.204;6.590;2022-12-18T15:48:48;102244.78;;;21.30;43.34
67038;BME280;53940;53.204;6.590;2022-12-18T15:51:52;102234.03;;;21.30;43.44
67038;BME280;53940;53.204;6.590;2022-12-18T15:54:53;102203.56;;;21.31;43.43
67038;BME280;53940;53.204;6.590;2022-12-18T15:58:12;102188.34;;;21.32;43.43
67038;BME280;53940;53.204;6.590;2022-12-18T16:01:13;102174.09;;;21.31;43.65
67038;BME280;53940;53.204;6.590;2022-12-18T16:04:15;102170.56;;;21.31;43.75
67038;BME280;53940;53.204;6.590;2022-12-18T16:07:16;102160.69;;;21.31;43.54
67038;BME280;53940;53.204;6.590;2022-12-18T16:10:17;102165.19;;;21.31;43.65
67038;BME280;53940;53.204;6.590;2022-12-18T16:13:19;102158.09;;;21.30;43.65
67038;BME280;53940;53.204;6.590;2022-12-18T16:16:19;102164.34;;;21.30;43.85
67038;BME280;53940;53.204;6.590;2022-12-18T16:19:20;102142.88;;;21.30;43.71
67038;BME280;53940;53.204;6.590;2022-12-18T16:22:26;102142.88;;;21.30;43.45
67038;BME280;53940;53.204;6.590;2022-12-18T16:25:28;102141.91;;;21.31;43.42
67038;BME280;53940;53.204;6.590;2022-12-18T16:28:28;102136.53;;;21.31;43.60
67038;BME280;53940;53.204;6.590;2022-12-18T16:31:28;102134.09;;;21.28;43.17
67038;BME280;53940;53.204;6.590;2022-12-18T16:34:31;102142.25;;;21.26;43.13
67038;BME280;53940;53.204;6.590;2022-12-18T16:37:32;102142.25;;;21.26;43.15
67038;BME280;53940;53.204;6.590;2022-12-18T16:40:32;102152.97;;;21.26;43.36
67038;BME280;53940;53.204;6.590;2022-12-18T16:43:33;102143.97;;;21.27;43.11
67038;BME280;53940;53.204;6.590;2022-12-18T16:46:33;102143.97;;;21.27;42.97
67038;BME280;53940;53.204;6.590;2022-12-18T16:49:34;102146.53;;;21.29;43.24
67038;BME280;53940;53.204;6.590;2022-12-18T16:52:35;102138.50;;;21.29;43.06
67038;BME280;53940;53.204;6.590;2022-12-18T16:55:36;102125.09;;;21.29;42.95
67038;BME280;53940;53.204;6.590;2022-12-18T16:58:36;102130.44;;;21.29;43.12
67038;BME280;53940;53.204;6.590;2022-12-18T17:01:36;102131.28;;;21.30;43.40
67038;BME280;53940;53.204;6.590;2022-12-18T17:04:37;102123.25;;;21.30;43.36
67038;BME280;53940;53.204;6.590;2022-12-18T17:07:37;102124.09;;;21.30;43.08
67038;BME280;53940;53.204;6.590;2022-12-18T17:10:37;102120.56;;;21.30;43.15
67038;BME280;53940;53.204;6.590;2022-12-18T17:13:38;102114.38;;;21.29;43.37
67038;BME280;53940;53.204;6.590;2022-12-18T17:16:39;102103.63;;;21.29;43.29
67038;BME280;53940;53.204;6.590;2022-12-18T17:19:39;102080.47;;;21.28;43.19